Impacts TAF Board
For situational awareness. Not to be used for flight planning purposes.
IDs:

KELP - El Paso Intl, TX, US

Issued at 1120 UTC 30 Oct 2020
Updated at 1654 UTC 30 Oct 2020
Potential Impact None Slight Moderate High
Time1651Z 30/17Z 30/18Z 30/19Z 30/20Z 30/21Z 30/22Z 30/23Z 31/00Z 31/01Z 31/02Z 31/03Z 31/04Z 31/05Z>>
Type OBS PRVL PRVL PRVL PRVL PRVL PRVL PRVL PRVL PRVL PRVL PRVL PRVL PRVL
VIS 10 >6 >6 >6 >6 >6 >6 >6 >6 >6 >6 >6 >6 >6
CIG -- -- -- -- -- -- -- -- -- -- -- -- -- --
Cover FEW FEW FEW FEW FEW FEW FEW FEW FEW FEW FEW FEW FEW FEW
FltCat VFR VFR VFR VFR VFR VFR VFR VFR VFR VFR VFR VFR VFR VFR
WX -- -- -- -- -- -- -- -- -- -- -- -- -- --
WDir 10 VRB VRB VRB VRB VRB VRB VRB VRB VRB VRB VRB VRB VRB
WSpd 7 5 5 5 5 5 5 5 5 5 5 5 5 5
WGst -- -- -- -- -- -- -- -- -- -- -- -- -- --
Raw TAF
KELP 301120Z 3012/3112 VRB05KT P6SM FEW250

Raw METAR
KELP 301651Z 01007KT 10SM FEW250 15/03 A3028 RMK AO2 SLP218 T01500033
KELP 301551Z 01008KT 10SM FEW250 11/04 A3030 RMK AO2 SLP229 T01110039
KELP 301451Z 02009KT 10SM FEW250 09/03 A3029 RMK AO2 SLP230 T00890033 53009
KELP 301351Z 01010KT 10SM FEW250 07/02 A3028 RMK AO2 SLP224 T00670017

METAR Board
Radar Display
Forecast Discussion
For situational awareness. Not to be used for flight planning purposes.